sensor_id;sensor_type;location;lat;lon;timestamp;P1;durP1;ratioP1;P2;durP2;ratioP2
58918;SDS011;44704;50.122;19.932;2022-11-20T00:01:10;76.30;;;33.60;;
58918;SDS011;44704;50.122;19.932;2022-11-20T00:03:40;77.30;;;36.80;;
58918;SDS011;44704;50.122;19.932;2022-11-20T00:06:10;73.60;;;33.90;;
58918;SDS011;44704;50.122;19.932;2022-11-20T00:08:39;71.70;;;33.70;;
58918;SDS011;44704;50.122;19.932;2022-11-20T00:11:08;71.90;;;33.40;;
58918;SDS011;44704;50.122;19.932;2022-11-20T00:13:37;74.30;;;34.40;;
58918;SDS011;44704;50.122;19.932;2022-11-20T00:16:05;70.40;;;33.10;;
58918;SDS011;44704;50.122;19.932;2022-11-20T00:18:33;71.10;;;34.70;;
58918;SDS011;44704;50.122;19.932;2022-11-20T00:21:10;80.10;;;38.30;;
58918;SDS011;44704;50.122;19.932;2022-11-20T00:23:40;79.70;;;36.00;;
58918;SDS011;44704;50.122;19.932;2022-11-20T00:26:08;75.20;;;36.60;;
58918;SDS011;44704;50.122;19.932;2022-11-20T00:28:37;72.20;;;33.90;;
58918;SDS011;44704;50.122;19.932;2022-11-20T00:31:09;80.40;;;35.00;;
58918;SDS011;44704;50.122;19.932;2022-11-20T00:33:40;75.00;;;35.50;;
58918;SDS011;44704;50.122;19.932;2022-11-20T00:36:09;78.20;;;35.10;;
58918;SDS011;44704;50.122;19.932;2022-11-20T00:38:50;78.60;;;36.40;;
58918;SDS011;44704;50.122;19.932;2022-11-20T00:41:18;74.80;;;35.10;;
58918;SDS011;44704;50.122;19.932;2022-11-20T00:43:45;73.40;;;33.10;;
58918;SDS011;44704;50.122;19.932;2022-11-20T00:46:13;72.30;;;33.80;;
58918;SDS011;44704;50.122;19.932;2022-11-20T00:48:42;74.20;;;34.20;;
58918;SDS011;44704;50.122;19.932;2022-11-20T00:51:11;73.60;;;32.50;;
58918;SDS011;44704;50.122;19.932;2022-11-20T00:53:40;75.20;;;36.50;;
58918;SDS011;44704;50.122;19.932;2022-11-20T00:56:09;75.00;;;35.20;;
58918;SDS011;44704;50.122;19.932;2022-11-20T00:58:38;76.40;;;36.40;;
58918;SDS011;44704;50.122;19.932;2022-11-20T01:01:09;74.00;;;34.00;;
58918;SDS011;44704;50.122;19.932;2022-11-20T01:03:47;71.60;;;34.40;;
58918;SDS011;44704;50.122;19.932;2022-11-20T01:06:17;74.30;;;34.20;;
58918;SDS011;44704;50.122;19.932;2022-11-20T01:08:46;77.20;;;34.30;;
58918;SDS011;44704;50.122;19.932;2022-11-20T01:11:14;70.70;;;34.90;;
58918;SDS011;44704;50.122;19.932;2022-11-20T01:13:46;73.60;;;36.00;;
58918;SDS011;44704;50.122;19.932;2022-11-20T01:18:47;72.40;;;34.60;;
58918;SDS011;44704;50.122;19.932;2022-11-20T01:21:20;70.30;;;32.80;;
58918;SDS011;44704;50.122;19.932;2022-11-20T01:23:50;76.60;;;33.90;;
58918;SDS011;44704;50.122;19.932;2022-11-20T01:26:19;79.50;;;34.80;;
58918;SDS011;44704;50.122;19.932;2022-11-20T01:28:48;75.20;;;35.20;;
58918;SDS011;44704;50.122;19.932;2022-11-20T01:31:16;76.30;;;35.30;;
58918;SDS011;44704;50.122;19.932;2022-11-20T01:36:13;65.40;;;31.50;;
58918;SDS011;44704;50.122;19.932;2022-11-20T01:38:40;73.50;;;31.80;;
58918;SDS011;44704;50.122;19.932;2022-11-20T01:41:09;75.70;;;32.90;;
58918;SDS011;44704;50.122;19.932;2022-11-20T01:43:58;70.60;;;31.80;;
58918;SDS011;44704;50.122;19.932;2022-11-20T01:46:25;76.20;;;33.00;;
58918;SDS011;44704;50.122;19.932;2022-11-20T01:49:08;71.30;;;33.20;;
58918;SDS011;44704;50.122;19.932;2022-11-20T01:51:44;67.00;;;31.20;;
58918;SDS011;44704;50.122;19.932;2022-11-20T01:54:16;60.60;;;31.40;;
58918;SDS011;44704;50.122;19.932;2022-11-20T01:56:46;66.70;;;30.50;;
58918;SDS011;44704;50.122;19.932;2022-11-20T01:59:19;65.00;;;31.40;;
58918;SDS011;44704;50.122;19.932;2022-11-20T02:01:48;66.10;;;31.90;;
58918;SDS011;44704;50.122;19.932;2022-11-20T02:04:15;70.60;;;33.00;;
58918;SDS011;44704;50.122;19.932;2022-11-20T02:06:50;76.90;;;34.40;;
58918;SDS011;44704;50.122;19.932;2022-11-20T02:09:22;70.00;;;32.60;;
58918;SDS011;44704;50.122;19.932;2022-11-20T02:11:48;67.90;;;31.60;;
58918;SDS011;44704;50.122;19.932;2022-11-20T02:14:15;55.50;;;28.00;;
58918;SDS011;44704;50.122;19.932;2022-11-20T02:16:46;62.50;;;30.30;;
58918;SDS011;44704;50.122;19.932;2022-11-20T02:19:26;67.00;;;29.80;;
58918;SDS011;44704;50.122;19.932;2022-11-20T02:22:05;65.10;;;31.70;;
58918;SDS011;44704;50.122;19.932;2022-11-20T02:24:39;64.60;;;32.00;;
58918;SDS011;44704;50.122;19.932;2022-11-20T02:27:11;59.90;;;28.90;;
58918;SDS011;44704;50.122;19.932;2022-11-20T02:29:44;65.50;;;30.50;;
58918;SDS011;44704;50.122;19.932;2022-11-20T02:32:20;73.20;;;31.20;;
58918;SDS011;44704;50.122;19.932;2022-11-20T02:34:50;63.10;;;28.20;;
58918;SDS011;44704;50.122;19.932;2022-11-20T02:37:17;64.40;;;29.30;;
58918;SDS011;44704;50.122;19.932;2022-11-20T02:39:46;68.00;;;31.00;;
58918;SDS011;44704;50.122;19.932;2022-11-20T02:42:15;67.90;;;32.80;;
58918;SDS011;44704;50.122;19.932;2022-11-20T02:44:42;66.10;;;33.00;;
58918;SDS011;44704;50.122;19.932;2022-11-20T02:47:09;77.80;;;33.80;;
58918;SDS011;44704;50.122;19.932;2022-11-20T02:49:36;69.60;;;32.30;;
58918;SDS011;44704;50.122;19.932;2022-11-20T02:52:03;70.00;;;31.70;;
58918;SDS011;44704;50.122;19.932;2022-11-20T02:54:30;65.10;;;31.20;;
58918;SDS011;44704;50.122;19.932;2022-11-20T02:56:57;70.00;;;32.20;;
58918;SDS011;44704;50.122;19.932;2022-11-20T02:59:24;72.00;;;35.60;;
58918;SDS011;44704;50.122;19.932;2022-11-20T03:01:51;64.70;;;32.30;;
58918;SDS011;44704;50.122;19.932;2022-11-20T03:04:18;65.30;;;30.90;;
58918;SDS011;44704;50.122;19.932;2022-11-20T03:06:45;66.20;;;30.80;;
58918;SDS011;44704;50.122;19.932;2022-11-20T03:09:11;67.00;;;31.50;;
58918;SDS011;44704;50.122;19.932;2022-11-20T03:11:39;74.00;;;33.20;;
58918;SDS011;44704;50.122;19.932;2022-11-20T03:14:06;65.70;;;31.10;;
58918;SDS011;44704;50.122;19.932;2022-11-20T03:16:33;65.20;;;33.00;;
58918;SDS011;44704;50.122;19.932;2022-11-20T03:19:00;72.70;;;33.50;;
58918;SDS011;44704;50.122;19.932;2022-11-20T03:21:26;61.10;;;32.10;;
58918;SDS011;44704;50.122;19.932;2022-11-20T03:23:54;64.20;;;30.80;;
58918;SDS011;44704;50.122;19.932;2022-11-20T03:26:22;77.20;;;33.50;;
58918;SDS011;44704;50.122;19.932;2022-11-20T03:28:52;73.60;;;33.10;;
58918;SDS011;44704;50.122;19.932;2022-11-20T03:31:27;72.00;;;30.90;;
58918;SDS011;44704;50.122;19.932;2022-11-20T03:33:56;73.10;;;32.20;;
58918;SDS011;44704;50.122;19.932;2022-11-20T03:36:25;74.30;;;32.80;;
58918;SDS011;44704;50.122;19.932;2022-11-20T03:38:54;63.00;;;30.30;;
58918;SDS011;44704;50.122;19.932;2022-11-20T03:41:24;69.00;;;30.00;;
58918;SDS011;44704;50.122;19.932;2022-11-20T03:46:25;67.80;;;31.70;;
58918;SDS011;44704;50.122;19.932;2022-11-20T03:48:53;74.20;;;33.90;;
58918;SDS011;44704;50.122;19.932;2022-11-20T03:51:25;78.20;;;35.60;;
58918;SDS011;44704;50.122;19.932;2022-11-20T03:53:54;73.10;;;34.30;;
58918;SDS011;44704;50.122;19.932;2022-11-20T03:56:24;64.80;;;32.90;;
58918;SDS011;44704;50.122;19.932;2022-11-20T03:58:53;70.50;;;31.70;;
58918;SDS011;44704;50.122;19.932;2022-11-20T04:01:21;75.30;;;34.80;;
58918;SDS011;44704;50.122;19.932;2022-11-20T04:03:51;71.20;;;32.80;;
58918;SDS011;44704;50.122;19.932;2022-11-20T04:06:20;74.20;;;34.20;;
58918;SDS011;44704;50.122;19.932;2022-11-20T04:08:49;76.30;;;37.90;;
58918;SDS011;44704;50.122;19.932;2022-11-20T04:11:17;72.90;;;37.40;;
58918;SDS011;44704;50.122;19.932;2022-11-20T04:16:15;72.70;;;31.90;;
58918;SDS011;44704;50.122;19.932;2022-11-20T04:18:43;78.40;;;35.00;;
58918;SDS011;44704;50.122;19.932;2022-11-20T04:21:10;75.90;;;34.90;;
58918;SDS011;44704;50.122;19.932;2022-11-20T04:23:38;76.20;;;35.20;;
58918;SDS011;44704;50.122;19.932;2022-11-20T04:26:09;82.40;;;38.00;;
58918;SDS011;44704;50.122;19.932;2022-11-20T04:28:37;73.70;;;36.70;;
58918;SDS011;44704;50.122;19.932;2022-11-20T04:31:09;76.80;;;35.90;;
58918;SDS011;44704;50.122;19.932;2022-11-20T04:33:37;81.60;;;36.40;;
58918;SDS011;44704;50.122;19.932;2022-11-20T04:36:10;77.70;;;35.70;;
58918;SDS011;44704;50.122;19.932;2022-11-20T04:38:38;76.50;;;34.50;;
58918;SDS011;44704;50.122;19.932;2022-11-20T04:41:06;80.50;;;38.80;;
58918;SDS011;44704;50.122;19.932;2022-11-20T04:43:34;81.80;;;34.90;;
58918;SDS011;44704;50.122;19.932;2022-11-20T04:46:01;74.50;;;35.20;;
58918;SDS011;44704;50.122;19.932;2022-11-20T04:48:29;65.40;;;31.60;;
58918;SDS011;44704;50.122;19.932;2022-11-20T04:50:56;73.30;;;32.90;;
58918;SDS011;44704;50.122;19.932;2022-11-20T04:53:24;68.70;;;30.00;;
58918;SDS011;44704;50.122;19.932;2022-11-20T04:55:50;62.60;;;29.80;;
58918;SDS011;44704;50.122;19.932;2022-11-20T04:58:17;63.70;;;29.80;;
58918;SDS011;44704;50.122;19.932;2022-11-20T05:00:44;67.00;;;29.80;;
58918;SDS011;44704;50.122;19.932;2022-11-20T05:03:11;76.20;;;31.60;;
58918;SDS011;44704;50.122;19.932;2022-11-20T05:05:38;69.70;;;32.70;;
58918;SDS011;44704;50.122;19.932;2022-11-20T05:08:05;74.50;;;33.40;;
58918;SDS011;44704;50.122;19.932;2022-11-20T05:10:32;65.40;;;31.40;;
58918;SDS011;44704;50.122;19.932;2022-11-20T05:12:58;72.00;;;31.70;;
58918;SDS011;44704;50.122;19.932;2022-11-20T05:15:25;68.90;;;33.50;;
58918;SDS011;44704;50.122;19.932;2022-11-20T05:17:52;72.80;;;33.00;;
58918;SDS011;44704;50.122;19.932;2022-11-20T05:20:19;72.90;;;33.10;;
58918;SDS011;44704;50.122;19.932;2022-11-20T05:22:47;74.60;;;33.40;;
58918;SDS011;44704;50.122;19.932;2022-11-20T05:25:13;68.40;;;33.50;;
58918;SDS011;44704;50.122;19.932;2022-11-20T05:27:40;64.40;;;32.60;;
58918;SDS011;44704;50.122;19.932;2022-11-20T05:30:08;66.90;;;32.70;;
58918;SDS011;44704;50.122;19.932;2022-11-20T05:32:35;68.10;;;31.20;;
58918;SDS011;44704;50.122;19.932;2022-11-20T05:35:02;71.20;;;33.00;;
58918;SDS011;44704;50.122;19.932;2022-11-20T05:37:29;67.70;;;33.00;;
58918;SDS011;44704;50.122;19.932;2022-11-20T05:39:56;69.10;;;34.40;;
58918;SDS011;44704;50.122;19.932;2022-11-20T05:42:23;72.30;;;34.50;;
58918;SDS011;44704;50.122;19.932;2022-11-20T05:45:00;72.90;;;33.90;;
58918;SDS011;44704;50.122;19.932;2022-11-20T05:49:58;64.30;;;29.30;;
58918;SDS011;44704;50.122;19.932;2022-11-20T05:52:28;61.80;;;27.80;;
58918;SDS011;44704;50.122;19.932;2022-11-20T05:54:56;59.90;;;28.40;;
58918;SDS011;44704;50.122;19.932;2022-11-20T05:57:23;63.50;;;28.90;;
58918;SDS011;44704;50.122;19.932;2022-11-20T05:59:50;57.90;;;29.20;;
58918;SDS011;44704;50.122;19.932;2022-11-20T06:02:16;65.40;;;29.90;;
58918;SDS011;44704;50.122;19.932;2022-11-20T06:04:44;66.50;;;30.10;;
58918;SDS011;44704;50.122;19.932;2022-11-20T06:07:11;70.60;;;30.30;;
58918;SDS011;44704;50.122;19.932;2022-11-20T06:09:38;65.40;;;29.70;;
58918;SDS011;44704;50.122;19.932;2022-11-20T06:12:05;73.00;;;32.00;;
58918;SDS011;44704;50.122;19.932;2022-11-20T06:14:33;69.70;;;31.50;;
58918;SDS011;44704;50.122;19.932;2022-11-20T06:17:00;71.60;;;35.00;;
58918;SDS011;44704;50.122;19.932;2022-11-20T06:19:27;76.90;;;36.10;;
58918;SDS011;44704;50.122;19.932;2022-11-20T06:21:54;71.40;;;32.80;;
58918;SDS011;44704;50.122;19.932;2022-11-20T06:24:21;64.30;;;30.80;;
58918;SDS011;44704;50.122;19.932;2022-11-20T06:26:48;66.50;;;30.30;;
58918;SDS011;44704;50.122;19.932;2022-11-20T06:29:15;61.30;;;30.00;;
58918;SDS011;44704;50.122;19.932;2022-11-20T06:31:42;73.00;;;32.50;;
58918;SDS011;44704;50.122;19.932;2022-11-20T06:34:09;57.90;;;26.30;;
58918;SDS011;44704;50.122;19.932;2022-11-20T06:36:36;74.90;;;34.90;;
58918;SDS011;44704;50.122;19.932;2022-11-20T06:39:03;68.30;;;34.50;;
58918;SDS011;44704;50.122;19.932;2022-11-20T06:41:30;62.80;;;29.60;;
58918;SDS011;44704;50.122;19.932;2022-11-20T06:43:57;66.50;;;28.50;;
58918;SDS011;44704;50.122;19.932;2022-11-20T06:46:24;61.50;;;28.80;;
58918;SDS011;44704;50.122;19.932;2022-11-20T06:48:51;64.80;;;28.90;;
58918;SDS011;44704;50.122;19.932;2022-11-20T06:51:18;58.90;;;28.20;;
58918;SDS011;44704;50.122;19.932;2022-11-20T06:53:45;62.70;;;29.70;;
58918;SDS011;44704;50.122;19.932;2022-11-20T06:56:12;62.80;;;30.20;;
58918;SDS011;44704;50.122;19.932;2022-11-20T06:58:39;60.40;;;29.50;;
58918;SDS011;44704;50.122;19.932;2022-11-20T07:01:07;59.00;;;27.00;;
58918;SDS011;44704;50.122;19.932;2022-11-20T07:03:37;61.10;;;28.20;;
58918;SDS011;44704;50.122;19.932;2022-11-20T07:06:04;63.00;;;28.30;;
58918;SDS011;44704;50.122;19.932;2022-11-20T07:08:32;65.00;;;27.50;;
58918;SDS011;44704;50.122;19.932;2022-11-20T07:10:59;66.90;;;30.80;;
58918;SDS011;44704;50.122;19.932;2022-11-20T07:13:28;73.80;;;33.40;;
58918;SDS011;44704;50.122;19.932;2022-11-20T07:16:00;71.50;;;30.20;;
58918;SDS011;44704;50.122;19.932;2022-11-20T07:18:28;61.90;;;28.20;;
58918;SDS011;44704;50.122;19.932;2022-11-20T07:20:55;62.80;;;30.50;;
58918;SDS011;44704;50.122;19.932;2022-11-20T07:23:22;74.70;;;30.90;;
58918;SDS011;44704;50.122;19.932;2022-11-20T07:25:49;68.50;;;31.40;;
58918;SDS011;44704;50.122;19.932;2022-11-20T07:28:16;71.00;;;32.80;;
58918;SDS011;44704;50.122;19.932;2022-11-20T07:30:43;71.80;;;34.50;;
58918;SDS011;44704;50.122;19.932;2022-11-20T07:33:16;69.30;;;31.70;;
58918;SDS011;44704;50.122;19.932;2022-11-20T07:35:43;72.30;;;31.90;;
58918;SDS011;44704;50.122;19.932;2022-11-20T07:38:10;68.20;;;32.80;;
58918;SDS011;44704;50.122;19.932;2022-11-20T07:40:37;74.20;;;34.50;;
58918;SDS011;44704;50.122;19.932;2022-11-20T07:43:04;80.40;;;36.60;;
58918;SDS011;44704;50.122;19.932;2022-11-20T07:45:30;80.70;;;35.10;;
58918;SDS011;44704;50.122;19.932;2022-11-20T07:47:57;77.40;;;37.10;;
58918;SDS011;44704;50.122;19.932;2022-11-20T07:50:24;88.90;;;39.50;;
58918;SDS011;44704;50.122;19.932;2022-11-20T07:52:51;85.40;;;37.40;;
58918;SDS011;44704;50.122;19.932;2022-11-20T07:55:19;89.50;;;39.20;;
58918;SDS011;44704;50.122;19.932;2022-11-20T07:57:45;84.60;;;39.10;;
58918;SDS011;44704;50.122;19.932;2022-11-20T08:00:13;96.20;;;41.10;;
58918;SDS011;44704;50.122;19.932;2022-11-20T08:02:40;97.70;;;43.80;;
58918;SDS011;44704;50.122;19.932;2022-11-20T08:05:08;94.20;;;44.20;;
58918;SDS011;44704;50.122;19.932;2022-11-20T08:07:39;95.70;;;44.80;;
58918;SDS011;44704;50.122;19.932;2022-11-20T08:10:08;98.50;;;47.40;;
58918;SDS011;44704;50.122;19.932;2022-11-20T08:12:47;102.80;;;46.80;;
58918;SDS011;44704;50.122;19.932;2022-11-20T08:15:34;102.60;;;49.00;;
58918;SDS011;44704;50.122;19.932;2022-11-20T08:18:09;106.30;;;49.50;;
58918;SDS011;44704;50.122;19.932;2022-11-20T08:20:40;103.90;;;48.80;;
58918;SDS011;44704;50.122;19.932;2022-11-20T08:23:07;95.50;;;47.50;;
58918;SDS011;44704;50.122;19.932;2022-11-20T08:25:35;89.60;;;43.30;;
58918;SDS011;44704;50.122;19.932;2022-11-20T08:28:04;96.90;;;43.40;;
58918;SDS011;44704;50.122;19.932;2022-11-20T08:30:34;99.90;;;46.80;;
58918;SDS011;44704;50.122;19.932;2022-11-20T08:33:02;101.80;;;46.90;;
58918;SDS011;44704;50.122;19.932;2022-11-20T08:35:37;103.80;;;45.70;;
58918;SDS011;44704;50.122;19.932;2022-11-20T08:38:05;111.40;;;48.50;;
58918;SDS011;44704;50.122;19.932;2022-11-20T08:40:32;103.20;;;46.20;;
58918;SDS011;44704;50.122;19.932;2022-11-20T08:42:59;105.40;;;46.00;;
58918;SDS011;44704;50.122;19.932;2022-11-20T08:45:27;95.20;;;41.80;;
58918;SDS011;44704;50.122;19.932;2022-11-20T08:47:59;92.70;;;43.60;;
58918;SDS011;44704;50.122;19.932;2022-11-20T08:50:26;102.00;;;47.90;;
58918;SDS011;44704;50.122;19.932;2022-11-20T08:52:53;106.50;;;46.20;;
58918;SDS011;44704;50.122;19.932;2022-11-20T08:55:20;97.60;;;46.90;;
58918;SDS011;44704;50.122;19.932;2022-11-20T08:57:47;95.40;;;43.30;;
58918;SDS011;44704;50.122;19.932;2022-11-20T09:00:14;87.80;;;41.40;;
58918;SDS011;44704;50.122;19.932;2022-11-20T09:02:41;94.50;;;43.30;;
58918;SDS011;44704;50.122;19.932;2022-11-20T09:05:08;93.60;;;41.70;;
58918;SDS011;44704;50.122;19.932;2022-11-20T09:07:35;85.60;;;42.40;;
58918;SDS011;44704;50.122;19.932;2022-11-20T09:10:02;101.70;;;46.30;;
58918;SDS011;44704;50.122;19.932;2022-11-20T09:12:30;96.50;;;44.90;;
58918;SDS011;44704;50.122;19.932;2022-11-20T09:14:56;98.10;;;44.20;;
58918;SDS011;44704;50.122;19.932;2022-11-20T09:17:23;92.80;;;42.50;;
58918;SDS011;44704;50.122;19.932;2022-11-20T09:19:50;96.90;;;42.10;;
58918;SDS011;44704;50.122;19.932;2022-11-20T09:22:17;86.40;;;41.20;;
58918;SDS011;44704;50.122;19.932;2022-11-20T09:24:44;96.60;;;42.70;;
58918;SDS011;44704;50.122;19.932;2022-11-20T09:27:11;94.40;;;42.40;;
58918;SDS011;44704;50.122;19.932;2022-11-20T09:29:38;84.10;;;41.60;;
58918;SDS011;44704;50.122;19.932;2022-11-20T09:32:04;96.80;;;44.30;;
58918;SDS011;44704;50.122;19.932;2022-11-20T09:34:32;90.20;;;43.20;;
58918;SDS011;44704;50.122;19.932;2022-11-20T09:36:59;96.10;;;43.20;;
58918;SDS011;44704;50.122;19.932;2022-11-20T09:39:26;97.20;;;44.60;;
58918;SDS011;44704;50.122;19.932;2022-11-20T09:44:34;97.60;;;44.40;;
58918;SDS011;44704;50.122;19.932;2022-11-20T09:56:03;84.10;;;37.80;;
58918;SDS011;44704;50.122;19.932;2022-11-20T09:58:35;113.50;;;50.00;;
58918;SDS011;44704;50.122;19.932;2022-11-20T10:01:15;110.60;;;50.10;;
58918;SDS011;44704;50.122;19.932;2022-11-20T10:04:03;104.10;;;47.20;;
58918;SDS011;44704;50.122;19.932;2022-11-20T10:06:42;91.90;;;43.80;;
58918;SDS011;44704;50.122;19.932;2022-11-20T10:09:31;99.80;;;43.70;;
58918;SDS011;44704;50.122;19.932;2022-11-20T10:14:55;122.10;;;55.10;;
58918;SDS011;44704;50.122;19.932;2022-11-20T10:25:39;113.30;;;53.10;;
58918;SDS011;44704;50.122;19.932;2022-11-20T10:28:13;102.50;;;46.70;;
58918;SDS011;44704;50.122;19.932;2022-11-20T10:33:23;97.60;;;45.00;;
58918;SDS011;44704;50.122;19.932;2022-11-20T10:38:37;95.10;;;42.50;;
58918;SDS011;44704;50.122;19.932;2022-11-20T10:41:11;95.50;;;43.60;;
58918;SDS011;44704;50.122;19.932;2022-11-20T10:44:00;91.50;;;43.20;;
58918;SDS011;44704;50.122;19.932;2022-11-20T10:47:17;120.50;;;54.30;;
58918;SDS011;44704;50.122;19.932;2022-11-20T10:49:46;93.90;;;43.10;;
58918;SDS011;44704;50.122;19.932;2022-11-20T10:52:26;88.10;;;40.90;;
58918;SDS011;44704;50.122;19.932;2022-11-20T11:00:42;96.70;;;43.40;;
58918;SDS011;44704;50.122;19.932;2022-11-20T11:03:31;86.50;;;40.20;;
58918;SDS011;44704;50.122;19.932;2022-11-20T11:08:48;99.60;;;45.00;;
58918;SDS011;44704;50.122;19.932;2022-11-20T11:16:52;88.30;;;42.80;;
58918;SDS011;44704;50.122;19.932;2022-11-20T11:19:21;86.40;;;40.80;;
58918;SDS011;44704;50.122;19.932;2022-11-20T11:21:54;91.60;;;41.80;;
58918;SDS011;44704;50.122;19.932;2022-11-20T11:24:23;83.90;;;40.30;;
58918;SDS011;44704;50.122;19.932;2022-11-20T11:29:30;75.60;;;37.90;;
58918;SDS011;44704;50.122;19.932;2022-11-20T11:32:08;94.50;;;44.00;;
58918;SDS011;44704;50.122;19.932;2022-11-20T11:34:40;70.90;;;36.20;;
58918;SDS011;44704;50.122;19.932;2022-11-20T11:37:13;86.00;;;40.80;;
58918;SDS011;44704;50.122;19.932;2022-11-20T11:39:44;78.80;;;37.90;;
58918;SDS011;44704;50.122;19.932;2022-11-20T11:42:16;68.10;;;33.30;;
58918;SDS011;44704;50.122;19.932;2022-11-20T11:44:46;70.60;;;33.40;;
58918;SDS011;44704;50.122;19.932;2022-11-20T11:47:35;67.20;;;31.80;;
58918;SDS011;44704;50.122;19.932;2022-11-20T11:50:16;66.50;;;33.20;;
58918;SDS011;44704;50.122;19.932;2022-11-20T11:55:45;81.10;;;38.30;;
58918;SDS011;44704;50.122;19.932;2022-11-20T12:00:57;84.30;;;39.50;;
58918;SDS011;44704;50.122;19.932;2022-11-20T12:03:37;89.10;;;39.40;;
58918;SDS011;44704;50.122;19.932;2022-11-20T12:06:07;83.70;;;40.10;;
58918;SDS011;44704;50.122;19.932;2022-11-20T12:16:40;93.70;;;43.20;;
58918;SDS011;44704;50.122;19.932;2022-11-20T12:19:08;93.20;;;43.50;;
58918;SDS011;44704;50.122;19.932;2022-11-20T12:24:23;85.80;;;40.10;;
58918;SDS011;44704;50.122;19.932;2022-11-20T12:29:43;88.00;;;40.30;;
58918;SDS011;44704;50.122;19.932;2022-11-20T12:37:56;91.00;;;42.20;;
58918;SDS011;44704;50.122;19.932;2022-11-20T12:40:36;87.70;;;41.00;;
58918;SDS011;44704;50.122;19.932;2022-11-20T12:43:19;92.10;;;43.10;;
58918;SDS011;44704;50.122;19.932;2022-11-20T12:48:41;84.10;;;39.20;;
58918;SDS011;44704;50.122;19.932;2022-11-20T12:51:38;85.00;;;40.60;;
58918;SDS011;44704;50.122;19.932;2022-11-20T12:57:18;90.50;;;41.90;;
58918;SDS011;44704;50.122;19.932;2022-11-20T13:02:37;85.60;;;44.10;;
58918;SDS011;44704;50.122;19.932;2022-11-20T13:07:51;86.50;;;40.70;;
58918;SDS011;44704;50.122;19.932;2022-11-20T13:10:37;85.10;;;39.40;;
58918;SDS011;44704;50.122;19.932;2022-11-20T13:13:18;92.80;;;44.20;;
58918;SDS011;44704;50.122;19.932;2022-11-20T13:18:24;82.50;;;41.40;;
58918;SDS011;44704;50.122;19.932;2022-11-20T13:20:51;92.00;;;43.80;;
58918;SDS011;44704;50.122;19.932;2022-11-20T13:23:25;91.30;;;43.40;;
58918;SDS011;44704;50.122;19.932;2022-11-20T13:26:03;87.60;;;42.60;;
58918;SDS011;44704;50.122;19.932;2022-11-20T13:28:33;81.60;;;38.60;;
58918;SDS011;44704;50.122;19.932;2022-11-20T13:31:02;73.80;;;36.60;;
58918;SDS011;44704;50.122;19.932;2022-11-20T13:33:33;78.70;;;36.20;;
58918;SDS011;44704;50.122;19.932;2022-11-20T13:36:05;77.60;;;35.20;;
58918;SDS011;44704;50.122;19.932;2022-11-20T13:38:44;75.00;;;35.50;;
58918;SDS011;44704;50.122;19.932;2022-11-20T13:41:26;70.40;;;35.90;;
58918;SDS011;44704;50.122;19.932;2022-11-20T13:44:06;78.90;;;34.70;;
58918;SDS011;44704;50.122;19.932;2022-11-20T13:46:44;77.50;;;37.60;;
58918;SDS011;44704;50.122;19.932;2022-11-20T13:51:49;74.20;;;35.50;;
58918;SDS011;44704;50.122;19.932;2022-11-20T14:02:16;78.00;;;35.20;;
58918;SDS011;44704;50.122;19.932;2022-11-20T14:04:46;80.60;;;35.70;;
58918;SDS011;44704;50.122;19.932;2022-11-20T14:07:16;75.40;;;35.20;;
58918;SDS011;44704;50.122;19.932;2022-11-20T14:09:49;74.70;;;34.40;;
58918;SDS011;44704;50.122;19.932;2022-11-20T14:12:23;72.20;;;34.50;;
58918;SDS011;44704;50.122;19.932;2022-11-20T14:15:00;69.70;;;34.30;;
58918;SDS011;44704;50.122;19.932;2022-11-20T14:17:34;74.40;;;36.20;;
58918;SDS011;44704;50.122;19.932;2022-11-20T14:20:06;72.60;;;34.90;;
58918;SDS011;44704;50.122;19.932;2022-11-20T14:22:47;76.60;;;36.80;;
58918;SDS011;44704;50.122;19.932;2022-11-20T14:27:47;73.50;;;35.20;;
58918;SDS011;44704;50.122;19.932;2022-11-20T14:30:20;69.10;;;33.60;;
58918;SDS011;44704;50.122;19.932;2022-11-20T14:32:49;77.70;;;36.10;;
58918;SDS011;44704;50.122;19.932;2022-11-20T14:37:50;69.50;;;32.80;;
58918;SDS011;44704;50.122;19.932;2022-11-20T14:40:34;80.40;;;35.30;;
58918;SDS011;44704;50.122;19.932;2022-11-20T14:43:15;75.50;;;35.70;;
58918;SDS011;44704;50.122;19.932;2022-11-20T14:45:44;78.50;;;36.50;;
58918;SDS011;44704;50.122;19.932;2022-11-20T14:48:15;90.70;;;40.10;;
58918;SDS011;44704;50.122;19.932;2022-11-20T14:50:42;88.00;;;39.50;;
58918;SDS011;44704;50.122;19.932;2022-11-20T14:53:09;81.20;;;36.10;;
58918;SDS011;44704;50.122;19.932;2022-11-20T14:55:37;90.30;;;42.90;;
58918;SDS011;44704;50.122;19.932;2022-11-20T14:58:06;89.60;;;40.50;;
58918;SDS011;44704;50.122;19.932;2022-11-20T15:00:56;88.00;;;44.40;;
58918;SDS011;44704;50.122;19.932;2022-11-20T15:03:58;90.80;;;42.60;;
58918;SDS011;44704;50.122;19.932;2022-11-20T15:06:25;101.10;;;45.80;;
58918;SDS011;44704;50.122;19.932;2022-11-20T15:08:53;92.10;;;43.60;;
58918;SDS011;44704;50.122;19.932;2022-11-20T15:11:22;106.90;;;47.90;;
58918;SDS011;44704;50.122;19.932;2022-11-20T15:13:55;105.30;;;48.50;;
58918;SDS011;44704;50.122;19.932;2022-11-20T15:16:23;113.90;;;52.30;;
58918;SDS011;44704;50.122;19.932;2022-11-20T15:18:53;115.80;;;53.80;;
58918;SDS011;44704;50.122;19.932;2022-11-20T15:21:20;117.90;;;57.70;;
58918;SDS011;44704;50.122;19.932;2022-11-20T15:23:48;131.40;;;58.70;;
58918;SDS011;44704;50.122;19.932;2022-11-20T15:26:18;136.20;;;59.40;;
58918;SDS011;44704;50.122;19.932;2022-11-20T15:28:54;127.60;;;59.60;;
58918;SDS011;44704;50.122;19.932;2022-11-20T15:31:21;122.20;;;57.40;;
58918;SDS011;44704;50.122;19.932;2022-11-20T15:33:50;139.50;;;60.10;;
58918;SDS011;44704;50.122;19.932;2022-11-20T15:36:17;140.50;;;60.70;;
58918;SDS011;44704;50.122;19.932;2022-11-20T15:38:44;133.20;;;56.90;;
58918;SDS011;44704;50.122;19.932;2022-11-20T15:41:11;126.90;;;57.40;;
58918;SDS011;44704;50.122;19.932;2022-11-20T15:43:38;130.90;;;58.60;;
58918;SDS011;44704;50.122;19.932;2022-11-20T15:46:06;129.60;;;60.70;;
58918;SDS011;44704;50.122;19.932;2022-11-20T15:48:38;134.50;;;59.30;;
58918;SDS011;44704;50.122;19.932;2022-11-20T15:53:37;126.80;;;57.80;;
58918;SDS011;44704;50.122;19.932;2022-11-20T15:56:05;132.10;;;58.10;;
58918;SDS011;44704;50.122;19.932;2022-11-20T15:58:35;139.00;;;57.90;;
58918;SDS011;44704;50.122;19.932;2022-11-20T16:01:03;140.70;;;60.80;;
58918;SDS011;44704;50.122;19.932;2022-11-20T16:03:30;132.20;;;59.20;;
58918;SDS011;44704;50.122;19.932;2022-11-20T16:05:57;113.30;;;52.30;;
58918;SDS011;44704;50.122;19.932;2022-11-20T16:08:24;137.20;;;61.50;;
58918;SDS011;44704;50.122;19.932;2022-11-20T16:10:50;140.40;;;59.20;;
58918;SDS011;44704;50.122;19.932;2022-11-20T16:13:17;136.10;;;58.40;;
58918;SDS011;44704;50.122;19.932;2022-11-20T16:16:04;122.70;;;54.70;;
58918;SDS011;44704;50.122;19.932;2022-11-20T16:18:35;126.50;;;56.40;;